Aviation Digital Data Service (ADDS)

Output produced by METARs form (1709 UTC 23 October 2014)
found at http://aviationweather.gov/adds/metars/
 
KSLK 231322Z 2313/2412 03009KT P6SM OVC009 
     TEMPO 2313/2317 OVC011 
     FM231700 03009KT P6SM OVC011 
     FM232000 03008KT 6SM -RA BR OVC015 
     FM240200 05004KT 6SM -RA BR OVC008 
     FM240700 05005KT P6SM OVC008